Time;durP1;ratioP1;P1;durP2;ratioP2;P2;SDS_P1;SDS_P2;PMS_P1;PMS_P2;Temp;Humidity;BMP_temperature;BMP_pressure;BME280_temperature;BME280_humidity;BME280_pressure;Samples;Min_cycle;Max_cycle;Signal;HPM_P1;HPM_P2
2021/10/12 00:03:51;;;;;;;63.60;33.50;;;;;;;7.32;74.73;99864.23;229431;1192;140546;-67
2021/10/12 00:08:56;;;;;;;58.80;32.40;;;;;;;7.38;74.99;99863.72;229219;1192;143843;-68
2021/10/12 00:14:00;;;;;;;59.10;34.20;;;;;;;7.42;75.09;99855.96;229071;1192;139942;-66
2021/10/12 00:19:05;;;;;;;75.00;43.80;;;;;;;7.39;74.99;99852.30;230005;1192;139480;-67
2021/10/12 00:24:10;;;;;;;53.10;31.30;;;;;;;7.35;75.21;99842.77;229612;1192;139703;-67
2021/10/12 00:29:15;;;;;;;51.70;27.70;;;;;;;7.31;75.27;99842.40;229693;1192;140672;-66
2021/10/12 00:34:19;;;;;;;56.70;31.60;;;;;;;7.32;75.28;99840.92;230191;1191;141075;-68
2021/10/12 00:39:22;;;;;;;63.90;34.60;;;;;;;7.32;75.91;99838.60;229955;1192;140927;-63
2021/10/12 00:44:27;;;;;;;36.70;23.00;;;;;;;7.39;75.79;99834.23;230390;1191;141172;-64
2021/10/12 00:49:31;;;;;;;71.80;44.60;;;;;;;7.44;75.60;99831.05;231328;1191;140680;-66
2021/10/12 00:54:35;;;;;;;46.30;26.20;;;;;;;7.49;76.09;99834.10;231413;1191;140531;-67
2021/10/12 00:59:40;;;;;;;54.00;29.20;;;;;;;7.54;75.91;99820.45;230687;1193;139811;-69
2021/10/12 01:04:45;;;;;;;54.70;27.00;;;;;;;7.66;75.98;99823.44;231300;1192;152283;-68
2021/10/12 01:09:49;;;;;;;48.60;27.80;;;;;;;7.70;75.93;99821.27;231291;1192;139833;-69
2021/10/12 01:14:53;;;;;;;56.30;30.10;;;;;;;7.67;76.15;99815.87;230674;1192;141308;-67
2021/10/12 01:19:58;;;;;;;45.90;27.50;;;;;;;7.73;75.83;99808.20;229893;1193;139638;-67
2021/10/12 01:25:03;;;;;;;55.30;31.30;;;;;;;7.81;76.45;99811.66;229719;1192;139740;-67
2021/10/12 01:30:09;;;;;;;58.50;29.50;;;;;;;7.82;76.31;99806.64;230439;1192;140508;-68
2021/10/12 01:35:16;;;;;;;44.90;24.00;;;;;;;7.81;75.94;99802.23;230312;1192;140456;-67
2021/10/12 01:40:21;;;;;;;45.50;26.20;;;;;;;7.80;76.21;99795.95;229067;1193;142103;-67
2021/10/12 01:45:26;;;;;;;39.80;23.00;;;;;;;7.82;76.05;99789.61;230446;1192;141166;-67
2021/10/12 01:50:30;;;;;;;40.30;21.00;;;;;;;7.84;76.56;99790.61;229832;1192;139761;-66
2021/10/12 01:55:38;;;;;;;39.40;22.00;;;;;;;7.86;76.33;99777.30;229067;1192;140293;-66
2021/10/12 02:00:42;;;;;;;43.50;24.80;;;;;;;7.87;76.44;99771.00;229227;1192;140163;-66
2021/10/12 02:05:46;;;;;;;43.60;26.10;;;;;;;7.86;76.40;99759.21;228990;1186;139386;-65
2021/10/12 02:10:51;;;;;;;48.90;26.10;;;;;;;7.86;76.56;99757.33;229853;1191;141443;-67
2021/10/12 02:15:55;;;;;;;43.60;23.90;;;;;;;7.86;76.54;99749.04;229726;1192;139747;-66
2021/10/12 02:21:00;;;;;;;48.70;26.40;;;;;;;7.83;76.69;99749.77;229522;1192;139435;-66
2021/10/12 02:26:05;;;;;;;45.00;25.10;;;;;;;7.83;76.65;99747.27;229476;1192;139501;-66
2021/10/12 02:31:08;;;;;;;49.50;24.90;;;;;;;7.86;76.72;99746.84;230306;1192;140893;-66
2021/10/12 02:36:12;;;;;;;47.10;24.10;;;;;;;7.90;77.04;99740.23;230638;1192;139277;-66
2021/10/12 02:41:16;;;;;;;37.20;23.10;;;;;;;7.92;76.90;99737.64;230806;1192;140043;-66
2021/10/12 02:46:20;;;;;;;44.40;23.90;;;;;;;7.98;77.12;99733.12;230456;1192;139098;-66
2021/10/12 02:51:24;;;;;;;36.60;20.30;;;;;;;8.05;76.67;99728.11;230568;1191;140422;-68
2021/10/12 02:56:29;;;;;;;36.80;21.00;;;;;;;8.03;76.81;99723.52;231034;1191;140643;-66
2021/10/12 03:01:33;;;;;;;28.40;18.90;;;;;;;8.05;77.24;99720.60;231396;1192;139187;-67
2021/10/12 03:06:38;;;;;;;24.30;13.70;;;;;;;8.08;77.31;99710.78;231005;1191;140315;-66
2021/10/12 03:11:42;;;;;;;25.00;16.20;;;;;;;8.09;77.06;99701.13;231120;1192;142108;-67
2021/10/12 03:16:46;;;;;;;33.90;19.50;;;;;;;8.04;76.99;99696.92;230605;1192;141466;-70
2021/10/12 03:21:53;;;;;;;24.40;15.40;;;;;;;8.07;77.51;99697.91;229733;1192;141223;-66
2021/10/12 03:26:58;;;;;;;27.00;17.30;;;;;;;8.16;77.36;99695.55;230564;1191;141184;-67
2021/10/12 03:32:04;;;;;;;32.30;18.20;;;;;;;8.15;77.63;99691.35;230115;1192;140144;-66
2021/10/12 03:37:08;;;;;;;41.90;21.30;;;;;;;8.14;77.73;99690.79;229879;1192;140503;-67
2021/10/12 03:42:13;;;;;;;33.50;20.00;;;;;;;8.15;77.60;99693.11;229728;1192;141655;-67
2021/10/12 03:47:17;;;;;;;18.00;12.10;;;;;;;8.11;77.71;99687.51;229578;1192;142565;-66
2021/10/12 03:52:22;;;;;;;38.30;20.10;;;;;;;8.07;77.94;99682.36;230007;1192;140007;-68
2021/10/12 03:57:27;;;;;;;42.20;22.90;;;;;;;8.11;78.06;99680.04;229452;1193;141495;-67
2021/10/12 04:02:31;;;;;;;38.10;22.40;;;;;;;8.10;78.23;99675.54;229507;1192;140583;-67
2021/10/12 04:07:36;;;;;;;38.10;21.30;;;;;;;8.09;78.21;99670.83;229457;1192;140524;-67
2021/10/12 04:12:41;;;;;;;30.10;20.70;;;;;;;8.15;78.30;99662.64;230211;1191;139785;-67
2021/10/12 04:17:45;;;;;;;32.50;19.20;;;;;;;8.22;78.34;99661.52;229794;1191;141149;-67
2021/10/12 04:22:50;;;;;;;31.70;21.00;;;;;;;8.20;78.31;99659.05;230456;1191;139294;-66
2021/10/12 04:27:55;;;;;;;30.50;20.10;;;;;;;8.25;78.37;99650.59;229928;1191;140227;-66
2021/10/12 04:33:00;;;;;;;31.90;22.10;;;;;;;8.31;78.41;99648.80;230227;1192;141323;-67
2021/10/12 04:38:04;;;;;;;35.90;21.40;;;;;;;8.32;78.53;99651.30;229704;1192;140416;-66
2021/10/12 04:43:08;;;;;;;36.90;20.70;;;;;;;8.34;78.52;99645.56;230003;1192;139604;-66
2021/10/12 04:48:15;;;;;;;29.40;19.70;;;;;;;8.38;78.24;99646.17;230511;1191;143084;-66
2021/10/12 04:53:20;;;;;;;21.00;15.00;;;;;;;8.37;78.49;99641.69;230570;1192;142869;-66
2021/10/12 04:58:25;;;;;;;22.50;12.10;;;;;;;8.36;78.60;99641.88;229348;1192;152090;-66
2021/10/12 05:03:28;;;;;;;22.80;14.50;;;;;;;8.40;78.38;99637.73;231237;1191;139588;-67
2021/10/12 05:08:33;;;;;;;20.30;14.80;;;;;;;8.40;78.47;99634.75;230627;1191;139954;-67
2021/10/12 05:13:38;;;;;;;21.30;12.10;;;;;;;8.47;78.69;99627.98;231252;1191;140201;-67
2021/10/12 05:18:44;;;;;;;18.20;14.20;;;;;;;8.56;78.41;99628.44;230583;1192;140310;-68
2021/10/12 05:23:50;;;;;;;23.30;13.60;;;;;;;8.60;78.47;99624.33;230624;1191;139171;-68
2021/10/12 05:28:55;;;;;;;21.60;14.30;;;;;;;8.59;78.44;99624.09;230742;1192;140116;-69
2021/10/12 05:33:59;;;;;;;19.00;13.00;;;;;;;8.66;78.50;99619.67;229232;1192;140434;-67
2021/10/12 05:39:04;;;;;;;19.10;13.10;;;;;;;8.61;78.00;99620.92;230561;1192;140116;-67
2021/10/12 05:44:08;;;;;;;27.40;14.30;;;;;;;8.54;78.05;99621.07;230210;1191;140527;-69
2021/10/12 05:49:14;;;;;;;20.10;14.80;;;;;;;8.56;77.91;99617.64;229670;1192;151329;-66
2021/10/12 05:54:21;;;;;;;19.30;15.40;;;;;;;8.52;77.95;99626.13;230119;1191;140289;-67
2021/10/12 05:59:26;;;;;;;20.80;13.10;;;;;;;8.57;77.99;99632.86;229945;1193;139347;-67
2021/10/12 06:04:31;;;;;;;22.30;13.50;;;;;;;8.62;78.45;99637.84;229953;1192;140176;-67
2021/10/12 06:09:36;;;;;;;17.00;13.90;;;;;;;8.60;78.45;99635.73;229390;1192;140849;-67
2021/10/12 06:14:41;;;;;;;22.20;13.00;;;;;;;8.63;78.60;99638.02;229329;1192;141129;-66
2021/10/12 06:19:46;;;;;;;24.50;13.30;;;;;;;8.61;78.25;99638.13;229710;1192;140053;-67
2021/10/12 06:24:52;;;;;;;14.70;9.80;;;;;;;8.58;78.18;99637.42;230231;1191;139486;-66
2021/10/12 06:29:56;;;;;;;12.50;9.40;;;;;;;8.53;77.99;99635.96;230667;1191;139829;-67
2021/10/12 06:35:00;;;;;;;12.20;8.30;;;;;;;8.53;77.95;99635.10;229987;1192;140704;-67
2021/10/12 06:40:06;;;;;;;16.70;10.00;;;;;;;8.58;77.89;99630.08;229378;1192;141271;-67
2021/10/12 06:45:11;;;;;;;12.50;9.00;;;;;;;8.69;77.99;99630.43;230741;1191;139794;-67
2021/10/12 06:50:21;;;;;;;14.20;8.80;;;;;;;8.85;78.02;99637.15;230733;1192;140189;-67
2021/10/12 06:55:27;;;;;;;16.80;9.70;;;;;;;9.06;77.85;99640.95;230990;1191;140871;-68
2021/10/12 07:00:31;;;;;;;13.90;8.40;;;;;;;9.19;77.90;99645.88;230616;1191;143498;-66
2021/10/12 07:05:35;;;;;;;12.20;8.50;;;;;;;9.19;77.73;99646.16;231536;1192;139620;-68
2021/10/12 07:10:39;;;;;;;22.90;9.10;;;;;;;9.15;77.59;99642.80;231167;1192;141008;-67
2021/10/12 07:15:46;;;;;;;13.60;8.90;;;;;;;9.10;77.15;99643.39;229900;1191;143479;-67
2021/10/12 07:20:50;;;;;;;7.90;6.50;;;;;;;9.08;77.41;99650.83;231163;1192;141063;-67
2021/10/12 07:25:54;;;;;;;7.40;6.10;;;;;;;9.08;76.70;99652.02;230210;1192;140723;-67
2021/10/12 07:31:03;;;;;;;11.20;7.60;;;;;;;9.20;76.84;99653.02;230717;1191;141495;-66
2021/10/12 07:36:09;;;;;;;12.80;6.20;;;;;;;9.27;76.69;99653.69;229984;1192;140568;-67
2021/10/12 07:41:14;;;;;;;8.10;6.40;;;;;;;9.37;76.47;99649.52;230110;1192;140543;-67
2021/10/12 07:46:19;;;;;;;13.70;5.80;;;;;;;9.47;76.26;99641.37;229505;1192;153592;-66
2021/10/12 07:51:29;;;;;;;8.10;5.30;;;;;;;9.54;76.27;99637.89;230032;1192;139051;-67
2021/10/12 07:56:38;;;;;;;6.00;5.50;;;;;;;9.78;76.46;99637.99;229833;1192;139870;-67
2021/10/12 08:01:44;;;;;;;5.90;4.60;;;;;;;10.11;76.23;99634.52;230030;1191;139283;-67
2021/10/12 08:06:49;;;;;;;5.20;4.20;;;;;;;10.30;75.63;99633.19;229919;1192;139288;-67
2021/10/12 08:11:57;;;;;;;6.00;4.90;;;;;;;10.25;75.09;99620.70;229523;1191;138876;-68
2021/10/12 08:17:04;;;;;;;6.70;4.50;;;;;;;10.23;75.02;99621.04;229923;1192;142045;-67
2021/10/12 08:22:09;;;;;;;9.40;7.10;;;;;;;10.32;74.85;99624.16;230230;1192;140095;-67
2021/10/12 08:27:14;;;;;;;7.10;4.20;;;;;;;10.59;74.90;99626.95;229727;1192;141072;-67
2021/10/12 08:32:19;;;;;;;4.20;2.70;;;;;;;10.78;74.07;99622.88;230032;1192;140894;-67
2021/10/12 08:37:24;;;;;;;6.10;4.40;;;;;;;10.91;73.28;99621.45;229882;1192;139563;-67
2021/10/12 08:42:34;;;;;;;11.40;5.50;;;;;;;10.76;73.06;99615.05;229277;1192;153140;-67
2021/10/12 08:47:39;;;;;;;6.20;4.50;;;;;;;10.49;72.92;99606.36;229883;1187;140154;-67
2021/10/12 08:52:44;;;;;;;6.30;4.20;;;;;;;10.40;73.22;99605.35;230474;1191;138782;-66
2021/10/12 08:57:50;;;;;;;6.40;4.10;;;;;;;10.46;72.88;99600.66;230373;1191;139689;-67
2021/10/12 09:02:56;;;;;;;5.20;2.90;;;;;;;10.52;72.64;99604.94;230210;1191;141405;-67
2021/10/12 09:08:01;;;;;;;6.20;3.40;;;;;;;10.57;72.66;99600.14;230695;1191;139250;-68
2021/10/12 09:13:09;;;;;;;7.40;3.70;;;;;;;10.70;72.38;99597.55;229923;1192;140353;-67
2021/10/12 09:18:13;;;;;;;5.10;3.40;;;;;;;10.83;72.29;99592.45;230923;1191;139671;-67
2021/10/12 09:23:18;;;;;;;4.80;4.30;;;;;;;11.04;72.38;99593.13;230938;1191;139353;-67
2021/10/12 09:28:30;;;;;;;5.10;3.00;;;;;;;11.07;72.00;99585.23;230950;1183;139383;-67
2021/10/12 09:33:55;;;;;;;6.40;4.30;;;;;;;11.33;71.66;99584.43;230760;1191;140396;-68
2021/10/12 09:39:00;;;;;;;5.80;5.10;;;;;;;11.91;71.30;99582.36;229640;1192;139923;-67
2021/10/12 09:44:18;;;;;;;6.60;3.20;;;;;;;11.97;70.45;99580.56;230003;1192;140751;-67
2021/10/12 09:49:25;;;;;;;4.80;3.50;;;;;;;11.81;70.23;99579.66;229610;1184;139773;-67
2021/10/12 09:54:48;;;;;;;3.60;2.30;;;;;;;11.59;69.87;99576.98;229364;1191;139723;-67
2021/10/12 09:59:54;;;;;;;9.30;4.00;;;;;;;11.50;69.62;99575.51;230431;1191;139443;-68
2021/10/12 10:04:59;;;;;;;4.20;3.60;;;;;;;11.43;69.74;99571.56;230103;1191;140797;-67
2021/10/12 10:10:06;;;;;;;8.70;5.30;;;;;;;11.39;69.83;99566.86;229347;1191;139230;-67
2021/10/12 10:15:12;;;;;;;11.20;5.00;;;;;;;11.33;69.82;99561.05;229343;1192;139331;-67
2021/10/12 10:20:17;;;;;;;4.80;2.90;;;;;;;11.25;69.69;99548.88;230119;1191;139949;-67
2021/10/12 10:25:38;;;;;;;9.00;4.60;;;;;;;11.25;69.47;99544.61;230111;1192;138832;-67
2021/10/12 10:30:46;;;;;;;7.10;3.90;;;;;;;11.46;69.28;99536.91;229561;1192;139872;-67
2021/10/12 10:35:57;;;;;;;10.90;4.30;;;;;;;11.67;68.90;99532.77;230122;1191;163190;-67
2021/10/12 10:41:05;;;;;;;5.90;3.70;;;;;;;12.12;69.42;99530.58;229821;1193;140695;-67
2021/10/12 10:46:32;;;;;;;7.70;3.30;;;;;;;12.26;68.34;99518.28;230119;1184;220436;-67
2021/10/12 10:52:12;;;;;;;7.70;5.90;;;;;;;12.30;67.68;99505.35;229379;1191;140783;-67
2021/10/12 10:57:21;;;;;;;6.70;3.60;;;;;;;12.38;67.39;99503.41;229993;1192;140425;-67
2021/10/12 11:02:30;;;;;;;7.40;4.50;;;;;;;12.26;67.02;99507.02;230414;1192;140203;-67
2021/10/12 11:07:35;;;;;;;7.00;5.40;;;;;;;12.16;66.68;99495.85;229959;1192;139935;-67
2021/10/12 11:12:43;;;;;;;8.40;5.60;;;;;;;12.35;66.98;99490.91;231260;1192;140528;-68
2021/10/12 11:18:05;;;;;;;5.50;3.80;;;;;;;12.47;66.35;99473.98;230779;1191;142212;-67
2021/10/12 11:23:13;;;;;;;5.00;2.80;;;;;;;12.88;66.06;99455.70;231066;1192;140097;-68
2021/10/12 11:28:23;;;;;;;4.90;3.70;;;;;;;13.33;65.35;99457.31;231289;1191;140402;-68
2021/10/12 11:33:30;;;;;;;3.70;3.00;;;;;;;13.79;64.52;99462.14;230612;1183;140134;-68
2021/10/12 11:38:41;;;;;;;4.00;3.10;;;;;;;13.72;63.46;99458.36;230339;1192;139734;-68
2021/10/12 11:43:48;;;;;;;5.70;3.60;;;;;;;13.40;63.08;99451.20;229419;1192;151039;-68
2021/10/12 11:48:54;;;;;;;3.50;3.20;;;;;;;13.19;63.32;99442.98;230066;1191;139965;-69
2021/10/12 11:54:00;;;;;;;3.40;3.10;;;;;;;13.32;63.76;99428.66;229967;1191;144570;-68
2021/10/12 11:59:09;;;;;;;7.30;3.10;;;;;;;13.29;63.11;99420.98;229383;1193;139929;-66
2021/10/12 12:04:32;;;;;;;4.60;3.00;;;;;;;13.56;62.94;99418.12;229434;1192;140292;-67
2021/10/12 12:09:42;;;;;;;3.30;3.00;;;;;;;13.76;62.44;99406.73;229841;1192;140201;-67
2021/10/12 12:14:52;;;;;;;3.60;3.30;;;;;;;13.40;61.74;99402.95;229487;1192;139727;-67
2021/10/12 12:20:06;;;;;;;5.30;2.90;;;;;;;13.15;61.41;99398.32;229397;1192;142213;-67
2021/10/12 12:25:20;;;;;;;6.20;2.30;;;;;;;13.27;61.32;99386.88;229860;1192;139467;-67
2021/10/12 12:30:35;;;;;;;2.10;2.00;;;;;;;13.31;60.89;99380.95;229284;1192;139722;-67
2021/10/12 12:35:42;;;;;;;1.90;1.50;;;;;;;13.25;60.52;99382.70;229423;1192;139430;-67
2021/10/12 12:40:47;;;;;;;4.40;3.70;;;;;;;13.22;60.64;99370.26;229668;1192;139551;-67
2021/10/12 12:46:12;;;;;;;5.00;2.80;;;;;;;12.99;60.67;99366.64;230079;1192;140122;-67
2021/10/12 12:51:30;;;;;;;2.30;2.10;;;;;;;12.81;61.13;99360.87;230364;1191;139896;-67
2021/10/12 12:56:38;;;;;;;3.20;2.80;;;;;;;12.78;61.24;99355.45;230460;1192;139653;-67
2021/10/12 13:01:51;;;;;;;6.00;2.70;;;;;;;12.87;61.38;99359.70;230296;1192;140747;-68
2021/10/12 13:06:56;;;;;;;4.80;2.70;;;;;;;12.77;61.29;99358.01;230533;1191;139187;-67
2021/10/12 13:12:03;;;;;;;2.60;2.40;;;;;;;12.59;61.35;99359.48;231204;1191;139219;-68
2021/10/12 13:17:08;;;;;;;4.50;2.60;;;;;;;12.45;61.57;99359.81;230395;1191;139033;-67
2021/10/12 13:22:15;;;;;;;8.60;3.90;;;;;;;12.21;61.54;99374.37;231318;1191;140467;-67
2021/10/12 13:27:19;;;;;;;9.20;3.60;;;;;;;11.87;62.19;99378.16;231087;1191;141147;-67
2021/10/12 13:32:23;;;;;;;6.90;5.30;;;;;;;11.63;63.17;99369.22;231015;1192;141741;-68
2021/10/12 13:37:28;;;;;;;6.50;5.20;;;;;;;11.40;64.13;99379.09;229929;1192;140952;-68
2021/10/12 13:42:33;;;;;;;4.50;3.20;;;;;;;11.13;64.75;99392.52;230215;1192;143783;-67
2021/10/12 13:47:47;;;;;;;4.70;3.10;;;;;;;10.87;65.58;99389.29;230359;1192;139018;-68
2021/10/12 13:52:52;;;;;;;6.40;3.50;;;;;;;10.69;66.15;99377.13;230122;1192;140806;-68
2021/10/12 13:57:59;;;;;;;7.70;2.40;;;;;;;10.70;66.73;99366.80;229185;1192;140092;-68
2021/10/12 14:03:05;;;;;;;3.70;2.70;;;;;;;11.17;67.41;99352.78;229759;1193;141563;-67
2021/10/12 14:08:11;;;;;;;7.60;2.50;;;;;;;11.51;67.77;99348.96;229051;1193;140547;-65
2021/10/12 14:13:16;;;;;;;6.50;3.60;;;;;;;11.70;67.89;99351.72;229124;1192;140008;-66
2021/10/12 14:18:21;;;;;;;5.00;3.10;;;;;;;11.66;67.70;99363.38;229155;1193;140925;-66
2021/10/12 14:23:27;;;;;;;5.80;2.80;;;;;;;11.52;67.84;99362.91;229489;1192;140265;-67
2021/10/12 14:28:32;;;;;;;3.10;2.60;;;;;;;11.31;68.17;99360.00;229129;1192;141015;-67
2021/10/12 14:33:36;;;;;;;3.70;3.30;;;;;;;11.05;67.87;99355.29;229663;1193;140233;-67
2021/10/12 14:38:42;;;;;;;3.00;2.40;;;;;;;10.81;68.53;99351.13;229643;1192;140016;-68
2021/10/12 14:43:46;;;;;;;7.80;4.40;;;;;;;10.59;68.80;99349.00;229764;1192;138600;-69
2021/10/12 14:48:50;;;;;;;4.20;3.80;;;;;;;10.46;69.42;99343.67;230283;1191;139742;-68
2021/10/12 14:53:56;;;;;;;3.20;2.60;;;;;;;10.41;69.75;99339.39;229937;1192;140220;-68
2021/10/12 14:59:01;;;;;;;4.60;3.00;;;;;;;10.38;69.79;99339.13;228897;1193;247429;-69
2021/10/12 15:04:07;;;;;;;2.50;2.20;;;;;;;10.35;70.08;99334.73;230204;1192;140374;-69
2021/10/12 15:09:12;;;;;;;2.40;2.20;;;;;;;10.31;69.92;99336.10;230590;1191;140033;-69
2021/10/12 15:14:16;;;;;;;2.00;1.50;;;;;;;10.20;70.11;99337.17;230322;1192;139357;-69
2021/10/12 15:19:27;;;;;;;5.30;2.10;;;;;;;10.04;70.03;99327.85;231344;1191;139931;-70
2021/10/12 15:24:33;;;;;;;1.40;1.30;;;;;;;9.88;70.09;99329.27;230879;1191;139189;-69
2021/10/12 15:29:38;;;;;;;4.10;2.50;;;;;;;9.83;70.17;99335.52;230723;1192;141463;-69
2021/10/12 15:34:43;;;;;;;1.60;1.40;;;;;;;9.76;70.38;99332.48;231106;1192;142091;-71
2021/10/12 15:39:48;;;;;;;2.80;1.40;;;;;;;9.62;70.48;99334.66;229854;1192;140040;-70
2021/10/12 15:44:53;;;;;;;2.20;0.90;;;;;;;9.60;70.96;99329.03;228387;1192;138927;-70
2021/10/12 15:49:58;;;;;;;1.70;1.40;;;;;;;9.51;70.71;99328.39;228985;1192;140323;-69
2021/10/12 15:55:04;;;;;;;5.10;4.60;;;;;;;9.47;71.32;99336.99;230334;1191;139315;-69
2021/10/12 16:00:09;;;;;;;3.30;3.00;;;;;;;9.42;71.48;99334.58;229165;1192;139187;-67
2021/10/12 16:05:16;;;;;;;2.20;1.80;;;;;;;9.32;71.33;99335.20;229291;1193;140714;-67
2021/10/12 16:10:42;;;;;;;2.10;2.00;;;;;;;9.06;71.29;99333.34;229479;1192;141460;-67
2021/10/12 16:26:36;;;;;;;3.10;1.70;;;;;;;8.66;72.34;99347.25;229604;1192;139513;-67
2021/10/12 16:31:53;;;;;;;4.30;2.90;;;;;;;8.62;72.62;99347.53;229135;1192;139936;-67
2021/10/12 16:36:59;;;;;;;4.10;2.70;;;;;;;8.61;72.83;99351.50;229816;1192;139107;-67
2021/10/12 16:42:07;;;;;;;3.40;3.00;;;;;;;8.58;73.11;99350.95;229299;1192;138624;-66
2021/10/12 16:47:13;;;;;;;6.00;2.80;;;;;;;8.55;73.00;99355.95;229638;1192;139750;-68
2021/10/12 16:52:17;;;;;;;6.40;4.10;;;;;;;8.50;72.92;99360.14;229893;1192;140258;-70
2021/10/12 16:57:22;;;;;;;9.10;4.20;;;;;;;8.36;72.69;99354.63;230808;1192;140198;-69
2021/10/12 17:02:28;;;;;;;3.90;3.00;;;;;;;8.09;72.45;99352.73;230208;1192;140349;-68
2021/10/12 17:07:34;;;;;;;7.00;4.90;;;;;;;7.80;72.73;99352.11;230570;1192;140136;-71
2021/10/12 17:12:38;;;;;;;4.80;4.00;;;;;;;7.66;72.96;99358.84;230365;1192;140027;-68
2021/10/12 17:17:42;;;;;;;8.90;4.20;;;;;;;7.64;73.32;99364.45;230261;1192;140169;-67
2021/10/12 17:22:47;;;;;;;5.20;3.90;;;;;;;7.58;73.49;99363.89;231075;1192;140620;-67
2021/10/12 17:27:51;;;;;;;4.50;4.10;;;;;;;7.51;73.41;99365.77;231083;1191;139369;-67
2021/10/12 17:32:57;;;;;;;5.40;4.80;;;;;;;7.45;73.24;99366.48;230661;1192;141426;-66
2021/10/12 17:38:03;;;;;;;11.10;5.30;;;;;;;7.39;73.97;99370.84;230660;1186;140370;-67
2021/10/12 17:43:08;;;;;;;9.90;7.10;;;;;;;7.41;74.17;99369.19;230170;1192;140980;-67
2021/10/12 17:48:12;;;;;;;9.40;5.70;;;;;;;7.38;73.84;99374.41;230299;1191;139971;-68
2021/10/12 17:53:22;;;;;;;11.40;5.70;;;;;;;7.34;73.92;99378.38;229970;1192;140892;-68
2021/10/12 17:58:27;;;;;;;9.80;6.20;;;;;;;7.27;73.77;99385.45;229896;1192;140497;-67
2021/10/12 18:03:31;;;;;;;10.00;6.40;;;;;;;7.18;73.78;99386.48;229677;1192;139733;-67
2021/10/12 18:08:38;;;;;;;7.80;5.90;;;;;;;7.09;73.84;99382.27;229120;1192;139707;-67
2021/10/12 18:13:44;;;;;;;11.60;6.10;;;;;;;7.00;73.58;99384.19;230264;1192;141233;-68
2021/10/12 18:18:51;;;;;;;8.50;6.90;;;;;;;6.77;73.61;99391.46;229533;1192;140545;-68
2021/10/12 18:24:01;;;;;;;13.60;7.90;;;;;;;6.60;74.03;99391.98;229126;1192;139698;-68
2021/10/12 18:29:25;;;;;;;13.10;9.50;;;;;;;6.56;74.90;99385.02;229223;1192;139448;-68
2021/10/12 18:34:30;;;;;;;13.60;10.30;;;;;;;6.68;75.54;99388.21;229686;1192;140809;-67
2021/10/12 18:39:40;;;;;;;10.20;8.50;;;;;;;6.86;75.94;99392.73;229009;1191;139175;-67
2021/10/12 18:44:45;;;;;;;17.70;11.60;;;;;;;6.97;76.22;99396.14;230019;1192;139558;-68
2021/10/12 18:50:11;;;;;;;15.10;12.50;;;;;;;7.10;76.83;99401.11;230376;1192;141073;-67
2021/10/12 18:55:17;;;;;;;21.10;12.10;;;;;;;7.27;76.72;99402.05;229963;1191;140716;-67
2021/10/12 19:00:32;;;;;;;14.40;12.20;;;;;;;7.33;76.63;99405.15;229759;1192;139331;-68
2021/10/12 19:05:38;;;;;;;19.00;11.30;;;;;;;7.34;76.56;99403.63;230096;1191;140014;-68
2021/10/12 19:11:00;;;;;;;17.30;11.90;;;;;;;7.43;76.74;99407.96;230827;1192;207409;-68
2021/10/12 19:16:08;;;;;;;21.40;14.00;;;;;;;7.48;77.13;99401.75;230486;1192;140117;-68
2021/10/12 19:21:16;;;;;;;19.30;11.90;;;;;;;7.54;76.99;99402.29;230592;1192;140913;-68
2021/10/12 19:26:23;;;;;;;16.00;12.70;;;;;;;7.64;76.90;99399.27;231387;1191;140139;-67
2021/10/12 19:31:30;;;;;;;16.00;12.00;;;;;;;7.71;77.21;99400.27;231314;1191;140646;-67
2021/10/12 19:36:34;;;;;;;18.70;12.00;;;;;;;7.71;76.83;99397.94;230486;1192;142876;-68
2021/10/12 19:41:40;;;;;;;16.80;11.80;;;;;;;7.73;76.73;99395.60;229673;1192;140720;-68
2021/10/12 19:46:46;;;;;;;17.50;10.30;;;;;;;7.71;76.26;99396.39;229748;1192;139781;-67
2021/10/12 19:51:51;;;;;;;16.40;12.30;;;;;;;7.59;76.38;99398.20;230578;1192;140041;-68
2021/10/12 19:56:55;;;;;;;16.50;11.80;;;;;;;7.46;75.98;99406.05;229389;1179;140596;-67
2021/10/12 20:07:25;;;;;;;16.30;11.60;;;;;;;7.23;75.88;99415.51;229134;1192;140798;-66
2021/10/12 20:12:29;;;;;;;18.30;14.50;;;;;;;7.15;76.31;99418.77;229161;1187;140456;-67
2021/10/12 20:17:34;;;;;;;18.80;13.50;;;;;;;7.05;76.48;99420.81;229504;1192;139909;-68
2021/10/12 20:22:42;;;;;;;21.50;14.20;;;;;;;6.99;76.36;99423.71;229882;1192;139271;-67
2021/10/12 20:27:48;;;;;;;22.60;15.70;;;;;;;6.94;76.50;99426.53;229321;1192;139908;-68
2021/10/12 20:32:54;;;;;;;22.50;15.70;;;;;;;6.88;76.75;99430.08;229968;1192;139041;-67
2021/10/12 20:38:00;;;;;;;22.40;14.50;;;;;;;6.88;76.96;99435.14;229537;1192;140603;-68
2021/10/12 20:43:05;;;;;;;22.60;14.60;;;;;;;6.87;76.93;99434.25;230220;1192;140318;-70
2021/10/12 20:48:12;;;;;;;19.20;13.50;;;;;;;6.81;76.78;99438.30;229515;1193;140092;-67
2021/10/12 20:53:17;;;;;;;22.10;14.90;;;;;;;6.73;76.56;99440.48;230227;1192;139376;-67
2021/10/12 20:58:22;;;;;;;20.40;13.40;;;;;;;6.66;76.65;99448.10;228951;1192;139985;-66
2021/10/12 21:03:27;;;;;;;20.80;14.20;;;;;;;6.63;76.39;99454.19;230097;1192;140504;-65
2021/10/12 21:08:32;;;;;;;16.00;13.20;;;;;;;6.52;76.27;99453.09;230016;1192;139570;-68
2021/10/12 21:13:37;;;;;;;18.30;11.70;;;;;;;6.40;76.32;99456.15;230127;1192;139343;-68
2021/10/12 21:18:41;;;;;;;14.10;9.90;;;;;;;6.28;76.50;99449.52;231182;1192;139879;-66
2021/10/12 21:23:46;;;;;;;20.00;9.10;;;;;;;6.22;76.07;99452.55;230739;1192;139891;-67
2021/10/12 21:28:51;;;;;;;13.20;9.20;;;;;;;6.15;76.21;99459.11;231163;1192;140382;-67
2021/10/12 21:33:55;;;;;;;14.20;9.40;;;;;;;6.14;76.67;99462.69;230787;1191;139376;-67
2021/10/12 21:38:59;;;;;;;15.70;10.00;;;;;;;6.10;76.62;99460.73;230070;1192;139636;-66
2021/10/12 21:44:04;;;;;;;14.70;11.60;;;;;;;6.04;76.18;99460.77;229825;1192;140349;-66
2021/10/12 21:49:08;;;;;;;18.90;10.80;;;;;;;6.06;76.67;99460.04;229518;1192;139451;-67
2021/10/12 21:54:15;;;;;;;10.70;8.20;;;;;;;6.07;76.91;99458.89;229654;1192;139090;-65
2021/10/12 21:59:19;;;;;;;12.50;7.80;;;;;;;6.10;77.22;99459.48;230054;1192;138931;-66
2021/10/12 22:04:24;;;;;;;17.40;8.30;;;;;;;6.18;77.52;99463.88;228805;1192;139287;-64
2021/10/12 22:09:30;;;;;;;14.70;8.40;;;;;;;6.25;77.19;99459.99;229468;1192;141813;-66
2021/10/12 22:14:34;;;;;;;11.70;8.30;;;;;;;6.25;77.66;99460.56;229339;1192;140081;-65
2021/10/12 22:19:39;;;;;;;11.70;6.90;;;;;;;6.16;77.05;99460.73;229571;1192;140248;-66
2021/10/12 22:24:43;;;;;;;11.70;8.30;;;;;;;6.09;77.01;99465.80;228989;1185;141209;-65
2021/10/12 22:29:46;;;;;;;14.90;9.60;;;;;;;6.04;77.27;99472.73;229267;1192;140730;-66
2021/10/12 22:34:50;;;;;;;18.20;10.10;;;;;;;6.04;77.55;99473.71;228920;1192;140866;-63
2021/10/12 22:39:54;;;;;;;27.90;21.90;;;;;;;6.05;77.60;99472.77;229783;1191;140363;-64
2021/10/12 22:44:59;;;;;;;14.30;8.50;;;;;;;6.10;77.81;99471.29;229552;1192;141184;-64
2021/10/12 22:50:05;;;;;;;13.10;10.00;;;;;;;6.11;77.88;99474.45;230041;1192;140971;-63
2021/10/12 22:55:09;;;;;;;12.00;7.20;;;;;;;6.07;77.52;99474.48;229425;1192;140598;-63
2021/10/12 23:00:14;;;;;;;12.90;7.90;;;;;;;6.12;78.11;99480.79;230406;1191;140370;-65
2021/10/12 23:05:17;;;;;;;13.50;9.20;;;;;;;6.14;78.09;99481.05;230709;1192;140597;-65
2021/10/12 23:10:22;;;;;;;16.00;9.70;;;;;;;6.20;78.10;99487.17;229967;1192;139748;-67
2021/10/12 23:15:26;;;;;;;16.90;9.10;;;;;;;6.22;77.95;99489.36;230198;1192;139315;-67
2021/10/12 23:20:31;;;;;;;11.70;8.60;;;;;;;6.24;78.15;99486.49;230740;1192;140706;-69
2021/10/12 23:25:39;;;;;;;11.20;8.70;;;;;;;6.28;78.21;99486.20;229771;1191;139893;-67
2021/10/12 23:30:43;;;;;;;19.00;10.60;;;;;;;6.31;77.81;99486.18;231251;1191;140835;-67
2021/10/12 23:35:47;;;;;;;15.40;10.10;;;;;;;6.33;78.05;99488.25;231296;1191;140451;-67
2021/10/12 23:40:52;;;;;;;13.20;9.60;;;;;;;6.36;77.93;99492.79;231060;1191;141235;-67